Bo Dulces Labios, Puerto Rico
Current Conditions -  °F | °C
As of 4:50 PM on Monday 22 Dec 2014 (Local Time) from TJBQ Reporting Station
Overcast Overcast  
Wind Chill: 79°   Ceiling: 2000
Heat Index: 82°   Visibility: 10mi
Dew Point: 72°   Wind: 10mph
Humidity: 78%   Direction: 80°E
Pressure: 29.99"   Gusts: NA
Location:  18.203°N, 67.14°W
Report Text: TJBQ 222050Z 08009KT 10SM BKN020 OVC028 26/22 A2999 RMK RWY08 ATIS A
Loading
Personal Weather Stations






























Interactive Weather Map New forecast layout! Learn more

10-Day Weather Forecast

Advertisements
Track Severe Weather on mobile